Time;durP1;ratioP1;P1;durP2;ratioP2;P2;SDS_P1;SDS_P2;PMS_P1;PMS_P2;Temp;Humidity;BMP_temperature;BMP_pressure;BME280_temperature;BME280_humidity;BME280_pressure;Samples;Min_cycle;Max_cycle;Signal;HPM_P1;HPM_P2
2024/03/11 00:02:23;;;;;;;;;;;17.30;63.80;;;;;;5093203;28;20310;-71
2024/03/11 00:04:49;;;;;;;;;;;17.30;64.20;;;;;;5093358;28;19920;-71
2024/03/11 00:07:15;;;;;;;;;;;17.30;63.70;;;;;;5093272;28;19908;-71
2024/03/11 00:09:44;;;;;;;;;;;17.30;64.10;;;;;;5093875;28;19912;-72
2024/03/11 00:12:10;;;;;;;;;;;17.30;63.90;;;;;;5093295;28;19912;-72
2024/03/11 00:14:38;;;;;;;;;;;17.30;64.30;;;;;;5093549;28;19908;-72
2024/03/11 00:17:05;;;;;;;;;;;17.30;64.00;;;;;;5093519;28;19954;-72
2024/03/11 00:19:31;;;;;;;;;;;17.30;63.90;;;;;;5093273;28;20003;-72
2024/03/11 00:21:57;;;;;;;;;;;17.30;63.90;;;;;;5093189;28;19947;-72
2024/03/11 00:24:23;;;;;;;;;;;17.30;63.90;;;;;;5093142;28;19955;-72
2024/03/11 00:26:49;;;;;;;;;;;17.20;63.80;;;;;;5093100;28;19931;-72
2024/03/11 00:29:15;;;;;;;;;;;17.30;64.20;;;;;;5093200;28;19922;-72
2024/03/11 00:31:41;;;;;;;;;;;17.40;63.90;;;;;;5092987;28;19948;-72
2024/03/11 00:34:07;;;;;;;;;;;17.30;64.30;;;;;;5093011;28;19928;-72
2024/03/11 00:36:33;;;;;;;;;;;17.30;63.90;;;;;;5093355;28;19909;-72
2024/03/11 00:38:58;;;;;;;;;;;17.30;64.40;;;;;;5093198;28;19980;-72
2024/03/11 00:41:24;;;;;;;;;;;17.30;64.10;;;;;;5092827;28;19908;-72
2024/03/11 00:43:50;;;;;;;;;;;17.30;64.60;;;;;;5092683;28;19916;-72
2024/03/11 00:46:16;;;;;;;;;;;17.30;64.10;;;;;;5092685;28;20375;-72
2024/03/11 00:48:43;;;;;;;;;;;17.30;64.60;;;;;;5093039;28;19916;-72
2024/03/11 00:51:09;;;;;;;;;;;17.40;64.10;;;;;;5092891;28;20404;-72
2024/03/11 00:53:35;;;;;;;;;;;17.20;64.40;;;;;;5092411;28;20375;-72
2024/03/11 00:56:01;;;;;;;;;;;17.40;64.40;;;;;;5092403;28;20018;-72
2024/03/11 00:58:28;;;;;;;;;;;17.40;64.40;;;;;;5092330;28;19908;-73
2024/03/11 01:00:55;;;;;;;;;;;17.30;64.40;;;;;;5092169;28;19909;-73
2024/03/11 01:03:21;;;;;;;;;;;17.30;64.30;;;;;;5091909;28;19920;-73
2024/03/11 01:05:46;;;;;;;;;;;17.40;64.40;;;;;;5074605;28;19915;-72
2024/03/11 01:08:12;;;;;;;;;;;17.40;64.70;;;;;;5092084;28;19958;-72
2024/03/11 01:10:37;;;;;;;;;;;17.40;64.60;;;;;;5092444;28;19908;-72
2024/03/11 01:13:03;;;;;;;;;;;17.50;64.70;;;;;;5092088;28;19914;-72
2024/03/11 01:15:28;;;;;;;;;;;17.40;63.90;;;;;;5092140;28;19912;-72
2024/03/11 01:17:55;;;;;;;;;;;17.40;64.70;;;;;;5092350;28;19908;-72
2024/03/11 01:20:21;;;;;;;;;;;17.40;64.40;;;;;;5092126;28;19908;-72
2024/03/11 01:22:47;;;;;;;;;;;17.40;64.40;;;;;;5092051;28;19919;-72
2024/03/11 01:25:13;;;;;;;;;;;17.40;64.40;;;;;;5091947;28;20366;-72
2024/03/11 01:27:40;;;;;;;;;;;17.40;64.70;;;;;;5091970;28;19923;-72
2024/03/11 01:30:07;;;;;;;;;;;17.40;64.70;;;;;;5092014;28;20443;-72
2024/03/11 01:32:35;;;;;;;;;;;17.50;62.90;;;;;;5092049;28;19908;-72
2024/03/11 01:35:05;;;;;;;;;;;17.50;64.80;;;;;;5092595;28;19908;-72
2024/03/11 01:37:30;;;;;;;;;;;17.50;64.90;;;;;;5092090;28;19931;-72
2024/03/11 01:39:56;;;;;;;;;;;17.60;65.40;;;;;;5092036;28;20370;-72
2024/03/11 01:42:21;;;;;;;;;;;17.50;64.80;;;;;;5092046;28;19954;-72
2024/03/11 01:44:51;;;;;;;;;;;17.50;64.50;;;;;;5092106;28;19950;-72
2024/03/11 01:47:18;;;;;;;;;;;17.50;60.70;;;;;;5092110;28;20321;-72
2024/03/11 01:49:45;;;;;;;;;;;17.50;64.60;;;;;;5091977;28;19909;-72
2024/03/11 01:52:12;;;;;;;;;;;17.50;64.60;;;;;;5091939;28;19909;-72
2024/03/11 01:54:38;;;;;;;;;;;17.50;64.70;;;;;;5091884;28;19995;-72
2024/03/11 01:57:06;;;;;;;;;;;17.50;64.70;;;;;;5091826;28;19991;-72
2024/03/11 01:59:34;;;;;;;;;;;17.70;64.60;;;;;;5091910;28;19961;-72
2024/03/11 02:02:02;;;;;;;;;;;17.40;64.10;;;;;;5092333;28;19995;-72
2024/03/11 02:04:29;;;;;;;;;;;17.50;64.80;;;;;;5091686;28;19989;-72
2024/03/11 02:06:55;;;;;;;;;;;17.50;64.60;;;;;;5091802;28;19908;-72
2024/03/11 02:09:21;;;;;;;;;;;17.50;64.50;;;;;;5091562;28;19923;-72
2024/03/11 02:11:47;;;;;;;;;;;17.50;64.50;;;;;;5091729;28;20359;-72
2024/03/11 02:14:13;;;;;;;;;;;17.50;65.20;;;;;;5091716;28;19920;-72
2024/03/11 02:16:39;;;;;;;;;;;17.50;64.40;;;;;;5094413;28;19912;-72
2024/03/11 02:19:06;;;;;;;;;;;17.40;64.70;;;;;;5095375;28;20052;-72
2024/03/11 02:21:32;;;;;;;;;;;17.50;64.50;;;;;;5095271;28;19908;-72
2024/03/11 02:23:58;;;;;;;;;;;17.50;64.20;;;;;;5095354;28;19915;-72
2024/03/11 02:26:24;;;;;;;;;;;17.50;64.20;;;;;;5095570;28;19908;-72
2024/03/11 02:28:49;;;;;;;;;;;17.50;64.70;;;;;;5095121;28;20373;-72
2024/03/11 02:31:15;;;;;;;;;;;17.50;64.20;;;;;;5095623;28;19908;-72
2024/03/11 02:33:40;;;;;;;;;;;17.50;64.60;;;;;;5095145;28;20325;-72
2024/03/11 02:36:06;;;;;;;;;;;17.60;64.40;;;;;;5095003;28;20510;-72
2024/03/11 02:38:32;;;;;;;;;;;17.50;63.80;;;;;;5095060;28;19908;-72
2024/03/11 02:40:58;;;;;;;;;;;17.50;64.70;;;;;;5095250;28;20431;-72
2024/03/11 02:43:26;;;;;;;;;;;17.60;64.60;;;;;;5094860;28;19961;-72
2024/03/11 02:45:52;;;;;;;;;;;17.50;64.30;;;;;;5094842;28;19908;-73
2024/03/11 02:48:17;;;;;;;;;;;17.50;64.20;;;;;;5094664;28;19916;-73
2024/03/11 02:50:43;;;;;;;;;;;17.50;64.40;;;;;;5094708;28;19908;-72
2024/03/11 02:53:08;;;;;;;;;;;17.50;64.50;;;;;;5094759;28;20340;-72
2024/03/11 02:55:34;;;;;;;;;;;17.50;64.40;;;;;;5094649;28;19908;-72
2024/03/11 02:58:00;;;;;;;;;;;17.50;64.80;;;;;;5094880;28;19931;-72
2024/03/11 03:00:25;;;;;;;;;;;17.50;64.40;;;;;;5095179;28;19915;-72
2024/03/11 03:02:51;;;;;;;;;;;17.50;64.10;;;;;;5094359;28;19920;-72
2024/03/11 03:05:16;;;;;;;;;;;17.60;64.80;;;;;;5094587;28;19915;-72
2024/03/11 03:07:42;;;;;;;;;;;17.40;64.60;;;;;;5094518;28;19920;-72
2024/03/11 03:10:08;;;;;;;;;;;19.30;65.60;;;;;;5094645;28;19908;-72
2024/03/11 03:12:35;;;;;;;;;;;17.70;64.30;;;;;;5094647;28;19909;-72
2024/03/11 03:15:02;;;;;;;;;;;17.50;64.20;;;;;;5094538;28;19954;-72
2024/03/11 03:17:28;;;;;;;;;;;17.50;64.70;;;;;;5094496;28;19908;-72
2024/03/11 03:19:55;;;;;;;;;;;17.50;64.30;;;;;;5094200;28;19912;-72
2024/03/11 03:22:21;;;;;;;;;;;17.40;64.40;;;;;;5094418;28;20033;-72
2024/03/11 03:24:47;;;;;;;;;;;17.50;64.30;;;;;;5094083;28;20382;-72
2024/03/11 03:27:12;;;;;;;;;;;17.40;64.30;;;;;;5093507;28;19923;-72
2024/03/11 03:29:40;;;;;;;;;;;17.50;64.30;;;;;;5093928;28;20353;-72
2024/03/11 03:32:08;;;;;;;;;;;17.50;64.40;;;;;;5094048;28;19909;-72
2024/03/11 03:34:33;;;;;;;;;;;17.40;64.60;;;;;;5093971;28;19908;-72
2024/03/11 03:36:59;;;;;;;;;;;17.50;64.50;;;;;;5093973;28;19987;-72
2024/03/11 03:39:25;;;;;;;;;;;17.40;64.60;;;;;;5093987;28;20057;-72
2024/03/11 03:41:50;;;;;;;;;;;17.40;64.20;;;;;;5094076;28;19908;-73
2024/03/11 03:44:16;;;;;;;;;;;17.40;64.40;;;;;;5093875;28;19908;-73
2024/03/11 03:46:41;;;;;;;;;;;17.50;64.40;;;;;;5093722;28;19918;-72
2024/03/11 03:49:07;;;;;;;;;;;17.40;64.50;;;;;;5093602;28;20271;-73
2024/03/11 03:51:34;;;;;;;;;;;17.40;64.20;;;;;;5091907;28;20478;-72
2024/03/11 03:53:59;;;;;;;;;;;17.40;64.50;;;;;;5093415;28;19908;-72
2024/03/11 03:56:29;;;;;;;;;;;17.60;64.20;;;;;;5094127;28;19909;-72
2024/03/11 03:58:54;;;;;;;;;;;17.40;60.70;;;;;;5093491;28;19915;-72
2024/03/11 04:01:23;;;;;;;;;;;17.40;64.60;;;;;;5093627;28;19908;-72
2024/03/11 04:03:48;;;;;;;;;;;17.30;64.00;;;;;;5093253;28;19927;-72
2024/03/11 04:06:14;;;;;;;;;;;17.40;64.60;;;;;;5093402;28;19912;-72
2024/03/11 04:08:39;;;;;;;;;;;17.40;64.80;;;;;;5093310;28;20061;-73
2024/03/11 04:11:05;;;;;;;;;;;17.40;64.80;;;;;;5093252;28;19908;-73
2024/03/11 04:13:31;;;;;;;;;;;17.40;64.30;;;;;;5093491;28;19995;-72
2024/03/11 04:15:56;;;;;;;;;;;17.10;64.60;;;;;;5093295;28;20400;-73
2024/03/11 04:18:23;;;;;;;;;;;17.40;65.20;;;;;;5093343;28;19908;-72
2024/03/11 04:20:50;;;;;;;;;;;17.40;64.80;;;;;;5093166;28;19912;-72
2024/03/11 04:23:16;;;;;;;;;;;17.50;64.50;;;;;;5093203;28;19915;-72
2024/03/11 04:25:41;;;;;;;;;;;17.50;64.70;;;;;;5093701;28;19908;-72
2024/03/11 04:28:08;;;;;;;;;;;17.40;64.70;;;;;;5093365;28;19916;-72
2024/03/11 04:30:38;;;;;;;;;;;17.50;64.80;;;;;;5093131;28;20355;-72
2024/03/11 04:33:03;;;;;;;;;;;17.50;60.00;;;;;;5093280;28;19961;-72
2024/03/11 04:35:30;;;;;;;;;;;17.50;64.50;;;;;;5093299;28;19916;-72
2024/03/11 04:37:58;;;;;;;;;;;17.50;64.80;;;;;;5092683;28;20436;-72
2024/03/11 04:40:25;;;;;;;;;;;17.50;60.10;;;;;;5092939;28;19912;-72
2024/03/11 04:42:50;;;;;;;;;;;17.40;64.80;;;;;;5092854;28;20366;-72
2024/03/11 04:45:17;;;;;;;;;;;17.50;64.80;;;;;;5092877;28;20001;-72
2024/03/11 04:47:42;;;;;;;;;;;17.50;64.90;;;;;;5092697;28;19963;-72
2024/03/11 04:50:10;;;;;;;;;;;17.50;65.00;;;;;;5092859;28;19956;-72
2024/03/11 04:52:36;;;;;;;;;;;17.50;64.80;;;;;;5093273;28;19931;-72
2024/03/11 04:55:02;;;;;;;;;;;17.50;64.90;;;;;;5092648;28;19908;-72
2024/03/11 04:57:29;;;;;;;;;;;17.50;64.50;;;;;;5092655;28;19938;-72
2024/03/11 04:59:54;;;;;;;;;;;17.50;64.70;;;;;;5092542;28;19951;-72
2024/03/11 05:08:38;;;;;;;;;;;17.40;60.20;;;;;;5113048;28;20308;-71
2024/03/11 05:11:04;;;;;;;;;;;17.80;65.00;;;;;;5113104;28;19998;-71
2024/03/11 05:13:30;;;;;;;;;;;17.50;65.00;;;;;;5113155;28;19908;-71
2024/03/11 05:15:56;;;;;;;;;;;17.50;64.80;;;;;;5112916;28;20315;-71
2024/03/11 05:18:22;;;;;;;;;;;17.50;64.90;;;;;;5113249;28;19908;-71
2024/03/11 05:20:48;;;;;;;;;;;17.60;64.90;;;;;;5113220;28;19914;-71
2024/03/11 05:23:14;;;;;;;;;;;17.60;64.90;;;;;;5112939;28;19908;-71
2024/03/11 05:25:39;;;;;;;;;;;17.60;64.10;;;;;;5112810;28;19930;-71
2024/03/11 05:28:05;;;;;;;;;;;17.50;64.80;;;;;;5112806;28;19933;-71
2024/03/11 05:30:31;;;;;;;;;;;17.50;64.30;;;;;;5112731;28;19956;-71
2024/03/11 05:32:56;;;;;;;;;;;17.60;64.80;;;;;;5112755;28;19947;-71
2024/03/11 05:35:22;;;;;;;;;;;17.50;64.60;;;;;;5113257;28;19908;-71
2024/03/11 05:37:50;;;;;;;;;;;17.50;64.70;;;;;;5112579;28;19917;-71
2024/03/11 05:40:18;;;;;;;;;;;17.60;61.10;;;;;;5112707;28;19995;-71
2024/03/11 05:42:48;;;;;;;;;;;17.50;64.50;;;;;;5112771;28;20041;-71
2024/03/11 05:45:14;;;;;;;;;;;17.90;64.80;;;;;;5112651;28;19995;-71
2024/03/11 05:47:41;;;;;;;;;;;17.50;64.20;;;;;;5112677;28;19959;-71
2024/03/11 05:50:09;;;;;;;;;;;17.70;64.30;;;;;;5113073;28;19908;-71
2024/03/11 05:52:35;;;;;;;;;;;17.30;63.40;;;;;;5116784;28;19907;-71
2024/03/11 05:55:11;;;;;;;;;;;17.60;64.60;;;;;;5116682;28;19915;-71
2024/03/11 05:57:37;;;;;;;;;;;17.50;64.70;;;;;;5116639;28;19908;-71
2024/03/11 06:00:09;;;;;;;;;;;17.50;64.60;;;;;;5116758;28;19915;-71
2024/03/11 06:02:36;;;;;;;;;;;17.60;64.20;;;;;;5118707;28;19927;-71
2024/03/11 06:05:03;;;;;;;;;;;17.50;64.60;;;;;;5116978;28;19908;-71
2024/03/11 06:07:28;;;;;;;;;;;17.50;64.40;;;;;;5116583;28;19912;-71
2024/03/11 06:09:54;;;;;;;;;;;17.60;64.60;;;;;;5116395;28;19920;-71
2024/03/11 06:12:22;;;;;;;;;;;17.50;64.40;;;;;;5116367;28;20262;-71
2024/03/11 06:14:48;;;;;;;;;;;17.80;61.40;;;;;;5116369;28;19914;-70
2024/03/11 06:17:15;;;;;;;;;;;17.50;64.30;;;;;;5121069;28;19947;-70
2024/03/11 06:19:41;;;;;;;;;;;17.50;64.40;;;;;;5116432;28;19908;-71
2024/03/11 06:22:10;;;;;;;;;;;17.50;64.50;;;;;;5116042;28;20286;-72
2024/03/11 06:24:37;;;;;;;;;;;17.50;64.40;;;;;;5119172;28;19908;-72
2024/03/11 06:27:03;;;;;;;;;;;17.50;64.50;;;;;;5116253;28;19908;-72
2024/03/11 06:29:30;;;;;;;;;;;17.50;64.50;;;;;;5115788;28;19920;-72
2024/03/11 06:31:55;;;;;;;;;;;17.50;64.30;;;;;;5119539;28;19916;-72
2024/03/11 06:34:23;;;;;;;;;;;17.50;64.50;;;;;;5116115;28;19908;-72
2024/03/11 06:36:49;;;;;;;;;;;17.50;64.50;;;;;;5115729;28;19911;-71
2024/03/11 06:39:15;;;;;;;;;;;17.50;64.70;;;;;;5115733;28;19908;-72
2024/03/11 06:41:41;;;;;;;;;;;17.50;64.50;;;;;;5115649;28;19932;-72
2024/03/11 06:44:06;;;;;;;;;;;17.50;61.40;;;;;;5115612;28;19915;-71
2024/03/11 06:46:32;;;;;;;;;;;15.50;60.60;;;;;;5115619;28;19914;-72
2024/03/11 06:48:58;;;;;;;;;;;17.40;61.40;;;;;;5115694;28;19915;-72
2024/03/11 06:51:24;;;;;;;;;;;17.40;61.90;;;;;;5116172;28;19908;-72
2024/03/11 06:53:50;;;;;;;;;;;17.40;61.40;;;;;;5115759;28;19976;-72
2024/03/11 06:56:18;;;;;;;;;;;17.40;61.40;;;;;;5115768;28;19994;-73
2024/03/11 06:58:44;;;;;;;;;;;17.40;61.40;;;;;;5115673;28;20003;-72
2024/03/11 07:01:13;;;;;;;;;;;17.50;61.30;;;;;;5115433;28;19953;-69
2024/03/11 07:03:41;;;;;;;;;;;17.40;59.40;;;;;;5115106;28;19923;-70
2024/03/11 07:06:08;;;;;;;;;;;17.40;61.80;;;;;;5115407;28;19991;-70
2024/03/11 07:08:36;;;;;;;;;;;17.40;61.80;;;;;;5115004;28;19916;-70
2024/03/11 07:11:02;;;;;;;;;;;17.40;61.90;;;;;;5115274;28;19907;-70
2024/03/11 07:13:31;;;;;;;;;;;17.40;61.50;;;;;;5115330;28;20329;-69
2024/03/11 07:15:58;;;;;;;;;;;17.50;62.00;;;;;;5115245;28;19923;-70
2024/03/11 07:18:24;;;;;;;;;;;17.40;62.20;;;;;;5115239;28;20277;-69
2024/03/11 07:20:57;;;;;;;;;;;17.30;61.80;;;;;;5115096;28;20315;-70
2024/03/11 07:23:23;;;;;;;;;;;17.50;61.70;;;;;;5114893;28;19908;-70
2024/03/11 07:25:49;;;;;;;;;;;17.40;61.80;;;;;;5115123;28;19951;-70
2024/03/11 07:28:17;;;;;;;;;;;17.50;61.70;;;;;;5114872;28;19963;-70
2024/03/11 07:30:45;;;;;;;;;;;17.40;61.50;;;;;;5115521;28;19998;-70
2024/03/11 07:33:14;;;;;;;;;;;17.50;61.60;;;;;;5114698;28;20006;-70
2024/03/11 07:35:43;;;;;;;;;;;17.50;58.70;;;;;;5114922;28;19953;-70
2024/03/11 07:38:10;;;;;;;;;;;16.20;60.70;;;;;;5114784;28;19908;-70
2024/03/11 07:40:36;;;;;;;;;;;17.50;61.70;;;;;;5114983;28;19960;-70
2024/03/11 07:43:03;;;;;;;;;;;17.50;61.80;;;;;;5114702;28;19915;-71
2024/03/11 07:45:29;;;;;;;;;;;17.40;61.30;;;;;;5114793;28;20277;-71
2024/03/11 07:47:55;;;;;;;;;;;17.70;61.80;;;;;;5114672;28;20243;-70
2024/03/11 07:50:22;;;;;;;;;;;17.50;61.40;;;;;;5114426;28;20045;-70
2024/03/11 07:52:49;;;;;;;;;;;17.50;61.70;;;;;;5114673;28;19915;-70
2024/03/11 07:55:18;;;;;;;;;;;17.40;61.40;;;;;;5114631;28;19908;-71
2024/03/11 07:57:47;;;;;;;;;;;17.50;61.10;;;;;;5115081;28;19907;-70
2024/03/11 08:00:18;;;;;;;;;;;17.50;59.60;;;;;;5114197;28;19915;-70
2024/03/11 08:02:44;;;;;;;;;;;17.50;61.30;;;;;;5114089;28;19927;-71
2024/03/11 08:05:13;;;;;;;;;;;17.40;61.60;;;;;;5114109;28;19915;-70
2024/03/11 08:07:42;;;;;;;;;;;17.50;61.30;;;;;;5113040;28;19950;-70
2024/03/11 08:10:09;;;;;;;;;;;17.40;61.80;;;;;;5114493;28;19939;-70
2024/03/11 08:12:35;;;;;;;;;;;17.50;60.30;;;;;;5113670;28;19943;-71
2024/03/11 08:15:04;;;;;;;;;;;17.50;61.50;;;;;;5113687;28;19957;-71
2024/03/11 08:17:30;;;;;;;;;;;17.50;61.60;;;;;;5114164;28;20015;-71
2024/03/11 08:19:55;;;;;;;;;;;17.50;61.60;;;;;;5114042;28;19939;-71
2024/03/11 08:22:21;;;;;;;;;;;17.50;61.40;;;;;;5113703;28;19908;-71
2024/03/11 08:24:47;;;;;;;;;;;17.50;61.40;;;;;;5113846;28;19961;-72
2024/03/11 08:27:15;;;;;;;;;;;17.60;61.20;;;;;;5114381;28;19998;-71
2024/03/11 08:29:41;;;;;;;;;;;17.50;61.60;;;;;;5113570;28;20404;-71
2024/03/11 08:32:07;;;;;;;;;;;17.50;61.70;;;;;;5113457;28;20312;-70
2024/03/11 08:34:35;;;;;;;;;;;17.50;61.50;;;;;;5113617;28;19908;-70
2024/03/11 08:37:03;;;;;;;;;;;17.40;61.40;;;;;;5113776;28;19908;-70
2024/03/11 08:39:30;;;;;;;;;;;17.50;61.40;;;;;;5113417;28;19941;-70
2024/03/11 08:41:56;;;;;;;;;;;17.50;61.50;;;;;;5094860;28;20326;-70
2024/03/11 08:44:21;;;;;;;;;;;17.50;61.40;;;;;;5094879;28;19907;-70
2024/03/11 08:46:47;;;;;;;;;;;17.50;61.60;;;;;;5113187;28;19942;-70
2024/03/11 08:49:12;;;;;;;;;;;16.30;60.60;;;;;;5113010;28;19923;-70
2024/03/11 08:51:41;;;;;;;;;;;17.40;61.50;;;;;;5113251;28;20369;-70
2024/03/11 08:54:07;;;;;;;;;;;17.60;61.10;;;;;;5113521;28;19940;-70
2024/03/11 08:56:32;;;;;;;;;;;17.40;61.50;;;;;;5113189;28;19961;-70
2024/03/11 08:58:58;;;;;;;;;;;17.50;61.30;;;;;;5112866;28;19908;-71
2024/03/11 09:01:23;;;;;;;;;;;17.60;61.00;;;;;;5112777;28;19957;-70
2024/03/11 09:03:49;;;;;;;;;;;17.40;61.30;;;;;;5112894;28;19916;-70
2024/03/11 09:06:16;;;;;;;;;;;17.50;61.60;;;;;;5112852;28;19907;-70
2024/03/11 09:08:44;;;;;;;;;;;17.50;61.00;;;;;;5112756;28;19915;-69
2024/03/11 09:11:10;;;;;;;;;;;17.40;61.20;;;;;;5112828;28;19908;-70
2024/03/11 09:13:36;;;;;;;;;;;17.40;61.60;;;;;;5112695;28;19908;-70
2024/03/11 09:16:02;;;;;;;;;;;17.40;61.20;;;;;;5112783;28;19977;-70
2024/03/11 09:18:27;;;;;;;;;;;17.50;61.90;;;;;;5112911;28;20002;-69
2024/03/11 09:20:53;;;;;;;;;;;17.40;61.20;;;;;;5112866;28;19915;-70
2024/03/11 09:23:18;;;;;;;;;;;17.50;61.00;;;;;;5113469;28;20364;-71
2024/03/11 09:25:44;;;;;;;;;;;17.40;61.20;;;;;;5111917;28;19908;-72
2024/03/11 09:28:09;;;;;;;;;;;17.60;61.60;;;;;;5112862;28;19915;-71
2024/03/11 09:30:36;;;;;;;;;;;17.40;61.20;;;;;;5112854;28;19969;-72
2024/03/11 09:33:01;;;;;;;;;;;17.50;61.30;;;;;;5112744;28;19908;-72
2024/03/11 09:35:28;;;;;;;;;;;17.40;61.50;;;;;;5112660;28;20412;-71
2024/03/11 09:37:54;;;;;;;;;;;17.40;61.60;;;;;;5112514;28;19908;-71
2024/03/11 09:40:23;;;;;;;;;;;17.40;61.30;;;;;;5112698;28;19915;-71
2024/03/11 09:42:54;;;;;;;;;;;17.40;61.70;;;;;;5112869;28;19919;-71
2024/03/11 09:45:22;;;;;;;;;;;17.40;61.20;;;;;;5112552;28;19914;-71
2024/03/11 09:47:58;;;;;;;;;;;17.40;61.50;;;;;;5112631;28;19907;-71
2024/03/11 09:50:27;;;;;;;;;;;17.40;57.60;;;;;;5112332;28;19961;-71
2024/03/11 09:53:03;;;;;;;;;;;17.40;61.50;;;;;;5112868;28;19915;-71
2024/03/11 09:55:29;;;;;;;;;;;17.40;57.80;;;;;;5112707;28;19927;-71
2024/03/11 09:58:02;;;;;;;;;;;17.40;61.50;;;;;;5112690;28;19998;-71
2024/03/11 10:00:29;;;;;;;;;;;17.40;57.70;;;;;;5112226;28;19908;-71
2024/03/11 10:03:02;;;;;;;;;;;17.50;61.20;;;;;;5112139;28;19966;-71
2024/03/11 10:05:31;;;;;;;;;;;17.40;57.90;;;;;;5112318;28;19912;-71
2024/03/11 10:08:00;;;;;;;;;;;17.30;61.20;;;;;;5112142;28;19923;-71
2024/03/11 10:10:28;;;;;;;;;;;17.40;57.80;;;;;;5112265;28;20438;-71
2024/03/11 10:12:58;;;;;;;;;;;17.40;61.40;;;;;;5112346;28;19915;-70
2024/03/11 10:15:27;;;;;;;;;;;17.40;61.40;;;;;;5112202;28;19907;-71
2024/03/11 10:18:25;;;;;;;;;;;17.40;61.50;;;;;;5112200;28;19915;-71
2024/03/11 10:20:57;;;;;;;;;;;17.60;61.80;;;;;;5112318;28;20011;-71
2024/03/11 10:23:25;;;;;;;;;;;17.10;57.90;;;;;;5112203;28;19931;-71
2024/03/11 10:26:12;;;;;;;;;;;17.40;61.70;;;;;;5112110;28;19930;-71
2024/03/11 10:28:48;;;;;;;;;;;17.40;61.70;;;;;;5112787;28;19999;-71
2024/03/11 10:31:21;;;;;;;;;;;17.40;58.20;;;;;;5112246;28;19908;-71
2024/03/11 10:33:50;;;;;;;;;;;17.30;58.10;;;;;;5112008;28;19912;-70
2024/03/11 10:36:16;;;;;;;;;;;17.40;62.10;;;;;;5112868;28;19908;-71
2024/03/11 10:38:43;;;;;;;;;;;17.40;61.50;;;;;;5116032;28;20301;-71
2024/03/11 10:41:21;;;;;;;;;;;17.40;62.10;;;;;;5115961;28;19912;-71
2024/03/11 10:43:51;;;;;;;;;;;17.40;58.40;;;;;;5115548;28;19915;-71
2024/03/11 10:46:20;;;;;;;;;;;17.40;62.20;;;;;;5115589;28;19908;-71
2024/03/11 10:48:47;;;;;;;;;;;17.40;62.50;;;;;;5115428;28;19968;-71
2024/03/11 10:51:19;;;;;;;;;;;17.40;62.20;;;;;;5115282;28;19911;-71
2024/03/11 10:53:45;;;;;;;;;;;17.40;58.40;;;;;;5115267;28;19914;-73
2024/03/11 10:56:17;;;;;;;;;;;17.40;62.10;;;;;;5115201;28;19985;-72
2024/03/11 10:58:43;;;;;;;;;;;17.40;62.30;;;;;;5115105;28;19908;-72
2024/03/11 11:01:09;;;;;;;;;;;17.50;61.70;;;;;;5114955;28;19975;-70
2024/03/11 11:03:36;;;;;;;;;;;17.40;62.10;;;;;;5114894;28;20373;-71
2024/03/11 11:06:14;;;;;;;;;;;17.50;62.10;;;;;;5115008;28;19914;-71
2024/03/11 11:08:42;;;;;;;;;;;17.50;62.20;;;;;;5114981;28;19920;-71
2024/03/11 11:11:13;;;;;;;;;;;17.40;62.00;;;;;;5114877;28;19953;-71
2024/03/11 11:13:41;;;;;;;;;;;17.40;62.10;;;;;;5121838;28;19972;-71
2024/03/11 11:16:07;;;;;;;;;;;17.40;61.90;;;;;;5114878;28;19951;-71
2024/03/11 11:18:34;;;;;;;;;;;17.40;62.00;;;;;;5114783;28;20386;-71
2024/03/11 11:21:00;;;;;;;;;;;17.50;62.20;;;;;;5114740;28;19908;-71
2024/03/11 11:23:34;;;;;;;;;;;17.50;62.20;;;;;;5114739;28;19908;-71
2024/03/11 11:26:01;;;;;;;;;;;17.70;62.50;;;;;;5115571;28;19912;-70
2024/03/11 11:28:39;;;;;;;;;;;17.40;62.00;;;;;;5096354;28;20335;-71
2024/03/11 11:31:14;;;;;;;;;;;17.50;58.30;;;;;;5114744;28;19915;-70
2024/03/11 11:33:58;;;;;;;;;;;17.50;58.20;;;;;;5114714;28;20379;-71
2024/03/11 11:36:30;;;;;;;;;;;17.40;58.30;;;;;;5114947;28;19907;-70
2024/03/11 11:39:14;;;;;;;;;;;17.50;58.30;;;;;;5114697;28;19932;-70
2024/03/11 11:41:45;;;;;;;;;;;17.40;58.10;;;;;;5114526;28;19912;-70
2024/03/11 11:44:11;;;;;;;;;;;17.40;58.20;;;;;;5114622;28;19908;-70
2024/03/11 11:46:40;;;;;;;;;;;17.40;61.80;;;;;;5114416;28;20338;-70
2024/03/11 11:49:16;;;;;;;;;;;17.40;58.10;;;;;;5113528;28;19961;-70
2024/03/11 11:51:46;;;;;;;;;;;17.40;58.10;;;;;;5114165;28;19912;-70
2024/03/11 11:54:34;;;;;;;;;;;17.40;58.10;;;;;;5114901;28;19957;-70
2024/03/11 11:57:17;;;;;;;;;;;17.40;58.30;;;;;;5111308;28;19908;-70
2024/03/11 11:59:45;;;;;;;;;;;17.50;62.40;;;;;;5114160;28;19908;-70
2024/03/11 12:02:20;;;;;;;;;;;17.50;61.40;;;;;;5113782;28;19995;-71
2024/03/11 12:04:47;;;;;;;;;;;17.40;62.20;;;;;;5114267;28;19915;-70
2024/03/11 12:07:13;;;;;;;;;;;17.40;62.50;;;;;;5114067;28;19908;-71
2024/03/11 12:09:46;;;;;;;;;;;17.40;61.90;;;;;;5114342;28;20289;-70
2024/03/11 12:12:14;;;;;;;;;;;17.50;61.80;;;;;;5114055;28;19916;-70
2024/03/11 12:14:50;;;;;;;;;;;17.40;61.80;;;;;;5113984;28;20094;-70
2024/03/11 12:17:16;;;;;;;;;;;17.40;61.70;;;;;;5114196;28;19916;-69
2024/03/11 12:19:42;;;;;;;;;;;17.50;61.70;;;;;;5114021;28;19961;-69
2024/03/11 12:22:13;;;;;;;;;;;17.50;61.90;;;;;;5114339;28;19908;-70
2024/03/11 12:24:41;;;;;;;;;;;17.40;61.90;;;;;;5114022;28;20335;-70
2024/03/11 12:27:12;;;;;;;;;;;17.50;61.40;;;;;;5113732;28;19907;-70
2024/03/11 12:29:39;;;;;;;;;;;17.50;61.80;;;;;;5113939;28;19919;-70
2024/03/11 12:32:11;;;;;;;;;;;17.40;61.60;;;;;;5113560;28;19908;-70
2024/03/11 12:34:38;;;;;;;;;;;17.40;61.60;;;;;;5113941;28;19915;-70
2024/03/11 12:37:04;;;;;;;;;;;17.40;61.60;;;;;;5113635;28;19968;-70
2024/03/11 12:39:34;;;;;;;;;;;17.40;61.00;;;;;;5113548;28;19915;-70
2024/03/11 12:42:00;;;;;;;;;;;17.40;61.50;;;;;;5113499;28;19912;-70
2024/03/11 12:44:27;;;;;;;;;;;17.10;61.20;;;;;;5113618;28;20424;-70
2024/03/11 12:46:53;;;;;;;;;;;17.40;61.60;;;;;;5113615;28;19907;-70
2024/03/11 12:49:22;;;;;;;;;;;17.40;61.50;;;;;;5113224;28;19927;-70
2024/03/11 12:51:51;;;;;;;;;;;17.40;58.00;;;;;;5114001;28;20007;-70
2024/03/11 12:54:22;;;;;;;;;;;17.50;61.60;;;;;;5113216;28;19907;-70
2024/03/11 12:57:13;;;;;;;;;;;17.40;61.60;;;;;;5120041;28;19912;-70
2024/03/11 12:59:43;;;;;;;;;;;17.40;58.30;;;;;;5113007;28;19912;-70
2024/03/11 13:02:09;;;;;;;;;;;17.50;61.00;;;;;;5112946;28;19927;-70
2024/03/11 13:04:36;;;;;;;;;;;17.40;61.10;;;;;;5113219;28;19908;-70
2024/03/11 13:07:09;;;;;;;;;;;17.40;61.40;;;;;;5113062;28;19919;-70
2024/03/11 13:09:35;;;;;;;;;;;18.00;58.30;;;;;;5112792;28;20010;-70
2024/03/11 13:12:01;;;;;;;;;;;17.40;61.70;;;;;;5113231;28;19914;-70
2024/03/11 13:14:30;;;;;;;;;;;17.40;61.50;;;;;;5112970;28;20289;-70
2024/03/11 13:16:56;;;;;;;;;;;17.40;57.90;;;;;;5112885;28;19908;-70
2024/03/11 13:19:25;;;;;;;;;;;17.40;61.50;;;;;;5113279;28;19907;-70
2024/03/11 13:21:58;;;;;;;;;;;17.40;61.70;;;;;;5112905;28;19908;-70
2024/03/11 13:24:24;;;;;;;;;;;17.50;61.60;;;;;;5112830;28;19961;-70
2024/03/11 13:26:51;;;;;;;;;;;17.40;61.50;;;;;;5112863;28;19908;-70
2024/03/11 13:29:19;;;;;;;;;;;17.40;61.60;;;;;;5112727;28;19922;-70
2024/03/11 13:31:45;;;;;;;;;;;17.40;61.70;;;;;;5112823;28;19947;-70
2024/03/11 13:34:11;;;;;;;;;;;17.50;61.90;;;;;;5112871;28;19915;-70
2024/03/11 13:36:37;;;;;;;;;;;17.40;61.50;;;;;;5113059;28;19908;-70
2024/03/11 13:39:15;;;;;;;;;;;17.40;61.60;;;;;;5112725;28;19908;-70
2024/03/11 13:41:44;;;;;;;;;;;17.40;61.40;;;;;;5113029;28;19908;-70
2024/03/11 13:44:10;;;;;;;;;;;17.60;58.10;;;;;;5112903;28;20281;-70
2024/03/11 13:46:37;;;;;;;;;;;17.50;61.50;;;;;;5112664;28;19907;-70
2024/03/11 13:49:03;;;;;;;;;;;17.40;61.60;;;;;;5113098;28;20393;-70
2024/03/11 13:51:28;;;;;;;;;;;17.40;61.70;;;;;;5112601;28;19951;-69
2024/03/11 13:53:54;;;;;;;;;;;17.40;61.40;;;;;;5112602;28;19999;-70
2024/03/11 13:56:19;;;;;;;;;;;17.40;61.50;;;;;;5112526;28;19943;-70
2024/03/11 13:58:45;;;;;;;;;;;17.40;61.70;;;;;;5112611;28;20388;-69
2024/03/11 14:01:11;;;;;;;;;;;17.40;61.00;;;;;;5112628;28;19915;-70
2024/03/11 14:03:40;;;;;;;;;;;17.40;61.40;;;;;;5112377;28;19963;-70
2024/03/11 14:06:08;;;;;;;;;;;17.40;61.70;;;;;;5112501;28;19953;-70
2024/03/11 14:08:35;;;;;;;;;;;17.30;62.40;;;;;;5112390;28;20473;-70
2024/03/11 14:11:01;;;;;;;;;;;17.70;62.00;;;;;;5112685;28;19911;-69
2024/03/11 14:13:26;;;;;;;;;;;17.40;62.00;;;;;;5116495;28;19914;-70
2024/03/11 14:15:52;;;;;;;;;;;17.40;61.90;;;;;;5116869;28;19907;-69
2024/03/11 14:18:18;;;;;;;;;;;17.40;62.00;;;;;;5116331;28;19954;-69
2024/03/11 14:20:47;;;;;;;;;;;17.40;62.00;;;;;;5116169;28;19938;-69
2024/03/11 14:23:14;;;;;;;;;;;17.40;62.40;;;;;;5116232;28;19953;-69
2024/03/11 14:25:41;;;;;;;;;;;17.40;62.00;;;;;;5116139;28;19912;-69